createdAt,value
2019-01-10T00:02:15.668Z,3.10
2019-01-10T00:04:57.417Z,3.00
2019-01-10T00:07:39.781Z,2.90
2019-01-10T00:10:21.900Z,2.90
2019-01-10T00:13:04.328Z,3.10
2019-01-10T00:15:45.876Z,3.10
2019-01-10T00:18:27.617Z,3.10
2019-01-10T00:21:09.918Z,3.10
2019-01-10T00:23:52.021Z,3.20
2019-01-10T00:26:33.485Z,3.10
2019-01-10T00:29:15.919Z,3.10
2019-01-10T00:31:57.916Z,3.00
2019-01-10T00:34:39.858Z,3.00
2019-01-10T00:37:22.229Z,3.00
2019-01-10T00:40:04.352Z,2.90
2019-01-10T00:42:49.827Z,3.00
2019-01-10T00:49:03.518Z,3.10
2019-01-10T00:51:45.404Z,3.00
2019-01-10T00:54:27.610Z,3.10
2019-01-10T00:57:09.165Z,3.10
2019-01-10T00:59:50.918Z,3.00
2019-01-10T01:02:33.053Z,3.10
2019-01-10T01:05:14.936Z,3.00
2019-01-10T01:07:56.463Z,3.00
2019-01-10T01:10:38.516Z,3.00
2019-01-10T01:13:22.513Z,3.00
2019-01-10T01:16:04.907Z,3.10
2019-01-10T01:18:46.716Z,3.00
2019-01-10T01:21:28.313Z,3.00
2019-01-10T01:24:10.422Z,3.00
2019-01-10T01:26:52.052Z,3.00
2019-01-10T01:29:34.105Z,2.90
2019-01-10T01:32:16.319Z,3.00
2019-01-10T01:34:58.277Z,2.90
2019-01-10T01:37:40.137Z,3.00
2019-01-10T01:40:22.528Z,3.00
2019-01-10T01:43:07.441Z,2.90
2019-01-10T01:45:47.955Z,3.10
2019-01-10T01:48:30.285Z,3.00
2019-01-10T01:51:12.184Z,3.00
2019-01-10T01:53:54.069Z,3.00
2019-01-10T01:56:36.007Z,3.00
2019-01-10T01:59:18.371Z,3.00
2019-01-10T02:02:00.716Z,2.90
2019-01-10T02:04:42.993Z,2.90
2019-01-10T02:07:24.927Z,2.90
2019-01-10T02:10:07.378Z,3.10
2019-01-10T02:12:49.456Z,3.10
2019-01-10T02:15:31.716Z,3.00
2019-01-10T02:18:13.992Z,3.00
2019-01-10T02:20:55.792Z,3.00
2019-01-10T02:23:37.567Z,3.10
2019-01-10T02:26:19.104Z,3.20
2019-01-10T02:29:00.817Z,3.20
2019-01-10T02:31:43.169Z,3.20
2019-01-10T02:34:25.520Z,3.20
2019-01-10T02:37:07.340Z,3.30
2019-01-10T02:39:49.309Z,3.20
2019-01-10T02:42:30.850Z,3.20
2019-01-10T02:45:13.102Z,3.20
2019-01-10T02:47:54.576Z,3.20
2019-01-10T02:50:36.895Z,3.20
2019-01-10T02:53:19.157Z,3.20
2019-01-10T02:56:01.485Z,3.20
2019-01-10T02:58:42.990Z,3.20
2019-01-10T03:01:24.997Z,3.10
2019-01-10T03:04:07.178Z,3.10
2019-01-10T03:06:49.268Z,3.10
2019-01-10T03:09:30.962Z,3.20
2019-01-10T03:12:12.580Z,3.00
2019-01-10T03:14:54.936Z,2.90
2019-01-10T03:17:37.103Z,2.80
2019-01-10T03:20:18.688Z,2.90
2019-01-10T03:23:00.142Z,2.80
2019-01-10T03:25:42.475Z,2.90
2019-01-10T03:28:24.575Z,3.00
2019-01-10T03:31:06.245Z,3.10
2019-01-10T03:33:47.861Z,2.90
2019-01-10T03:36:29.542Z,3.00
2019-01-10T03:39:11.627Z,3.00
2019-01-10T03:41:54.007Z,3.10
2019-01-10T03:44:36.034Z,3.10
2019-01-10T03:47:17.997Z,3.10
2019-01-10T03:49:59.862Z,3.20
2019-01-10T03:52:42.257Z,3.00
2019-01-10T03:55:24.301Z,3.10
2019-01-10T03:58:04.681Z,3.00
2019-01-10T04:00:53.952Z,3.00
2019-01-10T04:03:43.283Z,2.90
2019-01-10T04:06:32.554Z,2.80
2019-01-10T04:12:10.524Z,2.90
2019-01-10T04:14:59.869Z,2.90
2019-01-10T04:17:49.207Z,2.90
2019-01-10T04:20:38.500Z,2.90
2019-01-10T04:23:27.840Z,2.90
2019-01-10T04:26:17.124Z,2.90
2019-01-10T04:29:06.480Z,3.10
2019-01-10T04:31:55.853Z,3.20
2019-01-10T04:34:45.162Z,3.20
2019-01-10T04:37:34.492Z,3.30
2019-01-10T04:40:23.853Z,3.20
2019-01-10T04:43:13.113Z,3.20
2019-01-10T04:46:02.485Z,3.30
2019-01-10T04:48:51.734Z,3.20
2019-01-10T04:51:41.013Z,3.10
2019-01-10T04:54:30.258Z,3.20
2019-01-10T04:57:19.511Z,3.10
2019-01-10T05:00:27.926Z,3.10
2019-01-10T05:03:17.178Z,3.20
2019-01-10T05:08:55.049Z,3.20
2019-01-10T05:11:44.315Z,3.30
2019-01-10T05:14:33.572Z,3.30
2019-01-10T05:17:22.825Z,3.20
2019-01-10T05:20:13.369Z,3.20
2019-01-10T05:23:02.703Z,3.20
2019-01-10T05:25:51.960Z,3.10
2019-01-10T05:31:22.824Z,3.00
2019-01-10T05:34:04.704Z,3.20
2019-01-10T05:36:46.734Z,3.00
2019-01-10T05:39:28.680Z,3.30
2019-01-10T05:42:13.434Z,3.20
2019-01-10T05:44:54.969Z,3.30
2019-01-10T05:47:36.800Z,3.30
2019-01-10T05:50:18.468Z,3.40
2019-01-10T05:53:00.930Z,3.40
2019-01-10T05:55:42.930Z,3.40
2019-01-10T05:58:24.653Z,3.40
2019-01-10T06:01:06.826Z,3.40
2019-01-10T06:03:53.141Z,3.40
2019-01-10T06:06:32.305Z,3.40
2019-01-10T06:09:14.197Z,3.40
2019-01-10T06:11:55.752Z,3.30
2019-01-10T06:14:37.221Z,3.50
2019-01-10T06:17:19.025Z,3.50
2019-01-10T06:20:01.265Z,3.40
2019-01-10T06:22:42.969Z,3.40
2019-01-10T06:25:24.682Z,3.50
2019-01-10T06:31:06.686Z,3.50
2019-01-10T06:33:48.332Z,3.60
2019-01-10T06:36:30.578Z,3.50
2019-01-10T06:39:12.984Z,3.50
2019-01-10T06:41:54.776Z,3.50
2019-01-10T06:44:44.321Z,3.50
2019-01-10T06:47:20.034Z,3.40
2019-01-10T06:50:02.376Z,3.40
2019-01-10T06:52:43.974Z,3.50
2019-01-10T06:55:26.193Z,3.40
2019-01-10T06:58:08.108Z,3.40
2019-01-10T07:00:49.876Z,3.30
2019-01-10T07:03:32.347Z,3.20
2019-01-10T07:06:14.037Z,3.40
2019-01-10T07:08:55.595Z,3.60
2019-01-10T07:11:37.674Z,3.50
2019-01-10T07:14:19.853Z,3.40
2019-01-10T07:17:02.039Z,3.30
2019-01-10T07:19:45.000Z,3.30
2019-01-10T07:22:26.553Z,3.20
2019-01-10T07:25:08.150Z,3.30
2019-01-10T07:27:50.310Z,3.30
2019-01-10T07:30:36.230Z,3.20
2019-01-10T07:33:16.008Z,3.10
2019-01-10T07:35:57.786Z,3.10
2019-01-10T07:38:39.946Z,3.10
2019-01-10T07:41:22.261Z,3.20
2019-01-10T07:44:04.505Z,3.20
2019-01-10T07:46:46.852Z,3.30
2019-01-10T07:49:28.837Z,3.30
2019-01-10T07:52:11.391Z,3.30
2019-01-10T07:54:53.017Z,3.30
2019-01-10T07:57:35.016Z,3.30
2019-01-10T08:00:16.559Z,3.40
2019-01-10T08:02:58.724Z,3.30
2019-01-10T08:05:41.112Z,3.20
2019-01-10T08:08:22.945Z,3.30
2019-01-10T08:11:05.289Z,3.40
2019-01-10T08:13:47.333Z,3.50
2019-01-10T08:16:29.228Z,3.50
2019-01-10T08:19:09.707Z,3.50
2019-01-10T08:21:59.088Z,3.60
2019-01-10T08:24:48.349Z,3.60
2019-01-10T08:27:37.633Z,3.40
2019-01-10T08:30:26.881Z,3.40
2019-01-10T08:33:16.235Z,3.40
2019-01-10T08:36:05.500Z,3.30
2019-01-10T08:38:54.817Z,3.40
2019-01-10T08:41:44.174Z,3.50
2019-01-10T08:44:33.664Z,3.50
2019-01-10T08:47:43.902Z,3.50
2019-01-10T08:50:33.253Z,3.60
2019-01-10T08:53:22.614Z,3.60
2019-01-10T08:56:12.284Z,3.60
2019-01-10T08:59:01.554Z,3.70
2019-01-10T09:01:50.918Z,3.70
2019-01-10T09:04:40.310Z,3.60
2019-01-10T09:07:29.689Z,3.70
2019-01-10T09:10:28.788Z,3.70
2019-01-10T09:13:18.072Z,3.80
2019-01-10T09:16:07.425Z,3.80
2019-01-10T09:18:56.713Z,3.80
2019-01-10T09:21:45.980Z,3.80
2019-01-10T09:24:28.297Z,3.80
2019-01-10T09:27:10.405Z,3.90
2019-01-10T09:29:52.285Z,3.90
2019-01-10T09:32:34.331Z,3.90
2019-01-10T09:35:16.150Z,3.90
2019-01-10T09:37:57.697Z,3.80
2019-01-10T09:40:39.954Z,3.80
2019-01-10T09:43:21.808Z,3.80
2019-01-10T09:46:03.631Z,3.90
2019-01-10T09:48:45.413Z,3.80
2019-01-10T09:51:27.393Z,3.80
2019-01-10T09:54:09.470Z,3.70
2019-01-10T09:56:51.493Z,3.70
2019-01-10T09:59:33.477Z,3.80
2019-01-10T10:02:15.505Z,3.80
2019-01-10T10:04:57.652Z,4.10
2019-01-10T10:07:40.056Z,4.00
2019-01-10T10:10:22.160Z,3.90
2019-01-10T10:13:04.520Z,3.90
2019-01-10T10:15:52.405Z,3.80
2019-01-10T10:18:30.522Z,3.70
2019-01-10T10:21:12.357Z,3.70
2019-01-10T10:23:54.326Z,3.70
2019-01-10T10:26:36.478Z,3.50
2019-01-10T10:29:18.837Z,3.60
2019-01-10T10:32:00.597Z,3.40
2019-01-10T10:34:42.556Z,3.40
2019-01-10T10:37:24.436Z,3.60
2019-01-10T10:40:06.744Z,3.80
2019-01-10T10:46:21.205Z,3.80
2019-01-10T10:49:03.068Z,3.90
2019-01-10T10:51:44.851Z,3.80
2019-01-10T10:54:26.919Z,4.00
2019-01-10T10:57:08.784Z,4.00
2019-01-10T10:59:50.774Z,4.20
2019-01-10T11:02:33.230Z,4.30
2019-01-10T11:05:15.123Z,4.40
2019-01-10T11:07:57.216Z,4.20
2019-01-10T11:10:38.866Z,4.20
2019-01-10T11:13:21.153Z,4.30
2019-01-10T11:16:10.193Z,4.40
2019-01-10T11:18:52.537Z,4.40
2019-01-10T11:21:41.814Z,4.30
2019-01-10T11:24:31.152Z,4.30
2019-01-10T11:27:20.412Z,4.30
2019-01-10T11:30:10.773Z,4.30
2019-01-10T11:33:00.166Z,4.40
2019-01-10T11:35:49.769Z,4.40
2019-01-10T11:38:39.247Z,4.40
2019-01-10T11:41:28.661Z,4.50
2019-01-10T11:44:18.287Z,4.50
2019-01-10T11:47:07.733Z,4.40
2019-01-10T11:49:56.990Z,4.30
2019-01-10T11:56:02.304Z,4.30
2019-01-10T11:58:51.661Z,4.40
2019-01-10T12:01:41.124Z,4.40
2019-01-10T12:04:30.460Z,4.50
2019-01-10T12:07:19.807Z,4.50
2019-01-10T12:10:09.505Z,4.40
2019-01-10T12:12:58.918Z,4.40
2019-01-10T12:15:48.293Z,4.40
2019-01-10T12:18:38.050Z,4.40
2019-01-10T12:21:27.389Z,4.40
2019-01-10T12:24:16.652Z,4.40
2019-01-10T12:27:06.011Z,4.40
2019-01-10T12:29:55.351Z,4.40
2019-01-10T12:32:44.663Z,4.50
2019-01-10T12:35:26.485Z,4.40
2019-01-10T12:38:07.960Z,4.20
2019-01-10T12:40:49.426Z,4.30
2019-01-10T12:43:31.685Z,4.40
2019-01-10T12:46:13.513Z,4.40
2019-01-10T12:48:55.562Z,4.30
2019-01-10T12:51:37.410Z,4.30
2019-01-10T12:54:19.488Z,4.20
2019-01-10T13:00:01.163Z,4.50
2019-01-10T13:02:43.371Z,4.60
2019-01-10T13:05:25.401Z,4.60
2019-01-10T13:08:07.373Z,4.50
2019-01-10T13:10:49.144Z,4.60
2019-01-10T13:13:31.173Z,4.60
2019-01-10T13:16:13.420Z,4.50
2019-01-10T13:18:53.893Z,4.40
2019-01-10T13:21:43.237Z,4.40
2019-01-10T13:24:32.588Z,4.50
2019-01-10T13:27:21.872Z,4.30
2019-01-10T13:30:12.726Z,4.40
2019-01-10T13:32:54.732Z,4.40
2019-01-10T13:35:36.841Z,4.30
2019-01-10T13:41:51.970Z,4.40
2019-01-10T13:44:34.239Z,4.40
2019-01-10T13:47:15.801Z,4.40
2019-01-10T13:49:58.326Z,4.40
2019-01-10T13:52:40.605Z,4.30
2019-01-10T13:55:22.800Z,4.20
2019-01-10T13:58:04.453Z,4.30
2019-01-10T14:00:46.476Z,4.30
2019-01-10T14:03:28.211Z,4.20
2019-01-10T14:06:10.417Z,4.30
2019-01-10T14:08:52.723Z,4.20
2019-01-10T14:11:35.211Z,4.20
2019-01-10T14:14:17.032Z,4.10
2019-01-10T14:17:01.744Z,3.90
2019-01-10T14:19:43.096Z,4.00
2019-01-10T14:22:25.305Z,4.10
2019-01-10T14:25:07.176Z,4.00
2019-01-10T14:27:48.823Z,4.10
2019-01-10T14:30:30.919Z,4.00
2019-01-10T14:33:15.009Z,4.00
2019-01-10T14:35:57.244Z,3.90
2019-01-10T14:38:39.173Z,4.00
2019-01-10T14:41:21.044Z,3.90
2019-01-10T14:44:03.316Z,3.90
2019-01-10T14:46:44.999Z,3.90
2019-01-10T14:49:27.132Z,4.00
2019-01-10T14:52:09.091Z,4.00
2019-01-10T14:54:51.371Z,4.00
2019-01-10T14:57:33.537Z,4.00
2019-01-10T15:00:15.566Z,4.00
2019-01-10T15:02:57.561Z,3.90
2019-01-10T15:05:39.621Z,3.90
2019-01-10T15:08:21.921Z,4.10
2019-01-10T15:11:04.219Z,4.00
2019-01-10T15:13:45.999Z,4.10
2019-01-10T15:16:28.054Z,4.10
2019-01-10T15:19:10.510Z,4.00
2019-01-10T15:21:52.465Z,4.00
2019-01-10T15:24:34.415Z,3.90
2019-01-10T15:27:16.040Z,4.00
2019-01-10T15:29:58.289Z,4.00
2019-01-10T15:32:40.180Z,4.00
2019-01-10T15:35:22.064Z,4.10
2019-01-10T15:38:03.820Z,4.10
2019-01-10T15:40:45.388Z,4.00
2019-01-10T15:43:27.588Z,4.00
2019-01-10T15:46:09.556Z,4.00
2019-01-10T15:48:51.429Z,4.00
2019-01-10T15:51:33.686Z,4.00
2019-01-10T15:54:15.962Z,4.00
2019-01-10T15:57:00.778Z,4.00
2019-01-10T15:59:41.903Z,4.10
2019-01-10T16:02:23.441Z,4.00
2019-01-10T16:05:05.466Z,3.90
2019-01-10T16:07:47.261Z,3.80
2019-01-10T16:10:29.552Z,3.90
2019-01-10T16:15:51.119Z,3.80
2019-01-10T16:18:33.379Z,3.80
2019-01-10T16:21:15.157Z,3.70
2019-01-10T16:23:56.800Z,3.80
2019-01-10T16:26:39.118Z,3.80
2019-01-10T16:29:20.800Z,3.70
2019-01-10T16:32:02.727Z,3.90
2019-01-10T16:34:45.069Z,3.80
2019-01-10T16:37:26.852Z,3.80
2019-01-10T16:40:08.502Z,3.80
2019-01-10T16:42:50.408Z,3.80
2019-01-10T16:45:32.410Z,3.80
2019-01-10T16:48:14.596Z,3.80
2019-01-10T16:50:56.800Z,3.80
2019-01-10T16:53:38.710Z,3.80
2019-01-10T16:56:20.908Z,3.80
2019-01-10T16:59:03.250Z,3.70
2019-01-10T17:01:44.995Z,3.60
2019-01-10T17:04:27.085Z,3.60
2019-01-10T17:07:08.762Z,3.70
2019-01-10T17:09:50.841Z,3.70
2019-01-10T17:12:33.003Z,3.70
2019-01-10T17:15:15.502Z,3.70
2019-01-10T17:17:57.391Z,3.80
2019-01-10T17:20:39.855Z,3.80
2019-01-10T17:23:21.976Z,3.90
2019-01-10T17:26:04.388Z,3.80
2019-01-10T17:28:46.534Z,3.70
2019-01-10T17:31:28.105Z,3.50
2019-01-10T17:34:09.584Z,3.50
2019-01-10T17:36:51.591Z,3.50
2019-01-10T17:39:33.479Z,3.60
2019-01-10T17:42:15.826Z,3.70
2019-01-10T17:45:00.232Z,3.70
2019-01-10T17:47:44.184Z,3.80
2019-01-10T17:50:26.222Z,3.90
2019-01-10T17:53:08.190Z,3.80
2019-01-10T17:55:50.557Z,3.80
2019-01-10T17:58:32.593Z,3.70
2019-01-10T18:01:14.617Z,3.70
2019-01-10T18:03:57.035Z,3.70
2019-01-10T18:06:39.254Z,3.70
2019-01-10T18:09:21.187Z,3.80
2019-01-10T18:12:03.190Z,3.70
2019-01-10T18:14:45.460Z,3.80
2019-01-10T18:17:28.185Z,3.80
2019-01-10T18:20:10.044Z,3.80
2019-01-10T18:22:52.222Z,3.70
2019-01-10T18:25:32.673Z,3.60
2019-01-10T18:28:22.034Z,3.60
2019-01-10T18:31:11.365Z,3.70
2019-01-10T18:33:53.165Z,3.80
2019-01-10T18:36:34.954Z,3.80
2019-01-10T18:39:16.647Z,3.80
2019-01-10T18:41:58.949Z,3.90
2019-01-10T18:44:40.720Z,3.80
2019-01-10T18:47:22.878Z,3.70
2019-01-10T18:50:04.969Z,3.70
2019-01-10T18:52:47.106Z,3.80
2019-01-10T18:55:29.115Z,3.80
2019-01-10T18:58:11.147Z,3.70
2019-01-10T19:00:53.550Z,3.70
2019-01-10T19:03:35.110Z,3.80
2019-01-10T19:06:17.109Z,3.90
2019-01-10T19:08:59.117Z,3.90
2019-01-10T19:11:41.357Z,3.80
2019-01-10T19:14:23.264Z,3.90
2019-01-10T19:17:05.523Z,3.60
2019-01-10T19:19:46.976Z,3.70
2019-01-10T19:22:28.453Z,3.70
2019-01-10T19:25:10.794Z,3.70
2019-01-10T19:27:52.465Z,3.80
2019-01-10T19:30:34.565Z,3.80
2019-01-10T19:33:16.958Z,3.70
2019-01-10T19:35:59.160Z,3.70
2019-01-10T19:38:41.182Z,3.70
2019-01-10T19:41:23.313Z,3.80
2019-01-10T19:44:05.233Z,3.80
2019-01-10T19:46:47.313Z,3.80
2019-01-10T19:49:29.737Z,3.80
2019-01-10T19:52:11.357Z,3.80
2019-01-10T19:54:53.221Z,3.70
2019-01-10T19:57:35.498Z,3.70
2019-01-10T20:00:17.659Z,3.80
2019-01-10T20:02:59.675Z,3.80
2019-01-10T20:05:42.110Z,3.80
2019-01-10T20:08:24.241Z,3.70
2019-01-10T20:11:05.944Z,3.60
2019-01-10T20:13:47.848Z,3.70
2019-01-10T20:16:29.888Z,3.60
2019-01-10T20:19:12.281Z,3.70
2019-01-10T20:21:54.628Z,3.70
2019-01-10T20:24:37.025Z,3.70
2019-01-10T20:27:19.445Z,3.70
2019-01-10T20:30:01.866Z,3.70
2019-01-10T20:32:44.067Z,3.80
2019-01-10T20:35:25.898Z,3.80
2019-01-10T20:38:08.085Z,3.80
2019-01-10T20:40:51.896Z,3.80
2019-01-10T20:43:37.902Z,3.70
2019-01-10T20:46:20.189Z,3.70
2019-01-10T20:49:00.737Z,3.60
2019-01-10T20:51:50.150Z,3.70
2019-01-10T20:54:39.511Z,3.60
2019-01-10T20:57:28.929Z,3.60
2019-01-10T21:00:19.135Z,3.60
2019-01-10T21:03:08.405Z,3.60
2019-01-10T21:05:57.822Z,3.60
2019-01-10T21:08:47.190Z,3.60
2019-01-10T21:11:36.626Z,3.60
2019-01-10T21:14:25.989Z,3.70
2019-01-10T21:17:15.379Z,3.60
2019-01-10T21:23:33.964Z,3.70
2019-01-10T21:26:23.350Z,3.70
2019-01-10T21:29:21.085Z,3.70
2019-01-10T21:35:19.156Z,3.70
2019-01-10T21:38:01.380Z,3.70
2019-01-10T21:40:43.081Z,3.60
2019-01-10T21:43:24.815Z,3.50
2019-01-10T21:46:06.427Z,3.50
2019-01-10T21:48:48.793Z,3.50
2019-01-10T21:51:30.989Z,3.50
2019-01-10T21:54:13.284Z,3.50
2019-01-10T21:56:55.303Z,3.40
2019-01-10T21:59:37.532Z,3.40
2019-01-10T22:02:19.444Z,3.40
2019-01-10T22:05:01.613Z,3.30
2019-01-10T22:07:43.888Z,3.40
2019-01-10T22:10:25.779Z,3.40
2019-01-10T22:13:07.729Z,3.50
2019-01-10T22:15:50.035Z,3.40
2019-01-10T22:18:32.098Z,3.30
2019-01-10T22:21:14.550Z,3.30
2019-01-10T22:23:56.348Z,3.30
2019-01-10T22:26:38.529Z,3.40
2019-01-10T22:29:20.816Z,3.40
2019-01-10T22:32:03.128Z,3.30
2019-01-10T22:34:45.027Z,3.40
2019-01-10T22:37:29.148Z,3.40
2019-01-10T22:40:10.696Z,3.40
2019-01-10T22:42:52.496Z,3.30
2019-01-10T22:45:34.380Z,3.00
2019-01-10T22:48:16.466Z,2.90
2019-01-10T22:50:58.805Z,2.80
2019-01-10T22:53:40.681Z,2.90
2019-01-10T22:56:23.069Z,2.90
2019-01-10T22:59:05.240Z,2.80
2019-01-10T23:01:52.622Z,2.70
2019-01-10T23:04:36.570Z,2.60
2019-01-10T23:07:18.676Z,2.70
2019-01-10T23:10:01.053Z,2.70
2019-01-10T23:12:43.079Z,2.70
2019-01-10T23:15:34.913Z,2.80
2019-01-10T23:18:17.040Z,2.80
2019-01-10T23:20:59.136Z,2.60
2019-01-10T23:23:41.214Z,2.70
2019-01-10T23:26:22.916Z,2.70
2019-01-10T23:29:05.037Z,2.60
2019-01-10T23:31:47.215Z,2.60
2019-01-10T23:34:28.921Z,2.70
2019-01-10T23:37:11.148Z,2.70
2019-01-10T23:39:51.560Z,2.80
2019-01-10T23:42:40.825Z,2.70
2019-01-10T23:45:30.178Z,2.70
2019-01-10T23:48:19.561Z,2.80
2019-01-10T23:51:08.913Z,2.90
2019-01-10T23:53:58.411Z,2.90
2019-01-10T23:56:47.747Z,2.90
2019-01-10T23:59:37.039Z,3.00
